sensor_id;sensor_type;location;lat;lon;timestamp;P1;durP1;ratioP1;P2;durP2;ratioP2
16430;SDS011;8325;49.284;7.238;2023-08-12T04:04:16;7.30;;;6.38;;
16430;SDS011;8325;49.284;7.238;2023-08-12T04:08:28;8.13;;;6.53;;
16430;SDS011;8325;49.284;7.238;2023-08-12T04:12:40;6.80;;;6.10;;
16430;SDS011;8325;49.284;7.238;2023-08-12T04:16:55;8.80;;;6.30;;
16430;SDS011;8325;49.284;7.238;2023-08-12T04:21:06;7.38;;;6.28;;
16430;SDS011;8325;49.284;7.238;2023-08-12T04:25:18;6.88;;;6.18;;
16430;SDS011;8325;49.284;7.238;2023-08-12T04:29:29;8.48;;;7.45;;
16430;SDS011;8325;49.284;7.238;2023-08-12T04:33:42;10.30;;;7.10;;
16430;SDS011;8325;49.284;7.238;2023-08-12T04:37:54;9.90;;;7.00;;
16430;SDS011;8325;49.284;7.238;2023-08-12T04:42:06;8.80;;;7.00;;
16430;SDS011;8325;49.284;7.238;2023-08-12T04:46:18;7.82;;;7.03;;
16430;SDS011;8325;49.284;7.238;2023-08-12T04:50:30;8.10;;;7.22;;
16430;SDS011;8325;49.284;7.238;2023-08-12T04:54:42;7.88;;;7.07;;
16430;SDS011;8325;49.284;7.238;2023-08-12T04:58:54;9.15;;;7.18;;
16430;SDS011;8325;49.284;7.238;2023-08-12T05:03:07;8.30;;;6.60;;
16430;SDS011;8325;49.284;7.238;2023-08-12T05:07:19;7.50;;;6.80;;
16430;SDS011;8325;49.284;7.238;2023-08-12T05:11:31;8.75;;;6.90;;
16430;SDS011;8325;49.284;7.238;2023-08-12T05:15:46;8.05;;;6.43;;
16430;SDS011;8325;49.284;7.238;2023-08-12T05:20:00;7.43;;;6.60;;
16430;SDS011;8325;49.284;7.238;2023-08-12T05:24:12;7.32;;;6.50;;
16430;SDS011;8325;49.284;7.238;2023-08-12T05:28:23;7.22;;;6.53;;
16430;SDS011;8325;49.284;7.238;2023-08-12T05:32:35;7.50;;;6.70;;
16430;SDS011;8325;49.284;7.238;2023-08-12T05:36:47;8.13;;;7.32;;
16430;SDS011;8325;49.284;7.238;2023-08-12T05:40:58;8.15;;;7.35;;
16430;SDS011;8325;49.284;7.238;2023-08-12T05:45:10;7.20;;;6.43;;
16430;SDS011;8325;49.284;7.238;2023-08-12T05:49:22;9.43;;;6.90;;
16430;SDS011;8325;49.284;7.238;2023-08-12T05:53:33;8.23;;;7.22;;
16430;SDS011;8325;49.284;7.238;2023-08-12T05:57:45;8.00;;;6.95;;
16430;SDS011;8325;49.284;7.238;2023-08-12T06:01:57;7.35;;;6.65;;
16430;SDS011;8325;49.284;7.238;2023-08-12T06:06:08;8.30;;;6.88;;
16430;SDS011;8325;49.284;7.238;2023-08-12T06:10:20;8.43;;;7.57;;
16430;SDS011;8325;49.284;7.238;2023-08-12T06:14:31;9.05;;;7.07;;
16430;SDS011;8325;49.284;7.238;2023-08-12T06:18:43;7.43;;;6.68;;
16430;SDS011;8325;49.284;7.238;2023-08-12T06:22:55;8.73;;;7.05;;
16430;SDS011;8325;49.284;7.238;2023-08-12T06:27:07;7.25;;;6.55;;
16430;SDS011;8325;49.284;7.238;2023-08-12T06:31:18;8.02;;;7.22;;
16430;SDS011;8325;49.284;7.238;2023-08-12T06:35:30;9.23;;;8.23;;
16430;SDS011;8325;49.284;7.238;2023-08-12T06:39:42;10.68;;;7.85;;
16430;SDS011;8325;49.284;7.238;2023-08-12T06:43:53;10.32;;;8.20;;
16430;SDS011;8325;49.284;7.238;2023-08-12T06:48:05;8.82;;;7.50;;
16430;SDS011;8325;49.284;7.238;2023-08-12T06:52:17;9.82;;;8.50;;
16430;SDS011;8325;49.284;7.238;2023-08-12T06:56:28;9.50;;;8.50;;
16430;SDS011;8325;49.284;7.238;2023-08-12T07:00:40;10.60;;;8.50;;
16430;SDS011;8325;49.284;7.238;2023-08-12T07:04:51;9.90;;;8.23;;
16430;SDS011;8325;49.284;7.238;2023-08-12T07:09:03;9.05;;;8.10;;
16430;SDS011;8325;49.284;7.238;2023-08-12T07:13:15;9.57;;;8.55;;
16430;SDS011;8325;49.284;7.238;2023-08-12T07:17:26;8.73;;;7.75;;
16430;SDS011;8325;49.284;7.238;2023-08-12T07:21:38;10.73;;;8.38;;
16430;SDS011;8325;49.284;7.238;2023-08-12T07:25:49;10.82;;;8.55;;
16430;SDS011;8325;49.284;7.238;2023-08-12T07:30:01;9.68;;;8.25;;
16430;SDS011;8325;49.284;7.238;2023-08-12T07:34:14;8.85;;;7.18;;
16430;SDS011;8325;49.284;7.238;2023-08-12T07:38:25;10.13;;;8.30;;
16430;SDS011;8325;49.284;7.238;2023-08-12T07:42:37;8.13;;;7.28;;
16430;SDS011;8325;49.284;7.238;2023-08-12T07:46:49;8.23;;;7.10;;
16430;SDS011;8325;49.284;7.238;2023-08-12T07:51:00;8.07;;;7.25;;
16430;SDS011;8325;49.284;7.238;2023-08-12T07:55:12;9.75;;;8.13;;
16430;SDS011;8325;49.284;7.238;2023-08-12T07:59:24;9.23;;;7.30;;
16430;SDS011;8325;49.284;7.238;2023-08-12T08:03:37;7.43;;;6.53;;
16430;SDS011;8325;49.284;7.238;2023-08-12T08:07:48;8.10;;;7.15;;
16430;SDS011;8325;49.284;7.238;2023-08-12T08:12:00;7.25;;;6.50;;
16430;SDS011;8325;49.284;7.238;2023-08-12T08:16:12;9.63;;;7.15;;
16430;SDS011;8325;49.284;7.238;2023-08-12T08:20:23;8.60;;;7.38;;
16430;SDS011;8325;49.284;7.238;2023-08-12T08:24:35;7.07;;;6.38;;
16430;SDS011;8325;49.284;7.238;2023-08-12T08:28:47;8.43;;;7.25;;
16430;SDS011;8325;49.284;7.238;2023-08-12T08:32:59;8.07;;;6.00;;
16430;SDS011;8325;49.284;7.238;2023-08-12T08:37:10;6.88;;;6.28;;
16430;SDS011;8325;49.284;7.238;2023-08-12T08:41:22;6.40;;;5.63;;
16430;SDS011;8325;49.284;7.238;2023-08-12T08:45:36;5.80;;;5.30;;
16430;SDS011;8325;49.284;7.238;2023-08-12T08:49:48;6.82;;;5.95;;
16430;SDS011;8325;49.284;7.238;2023-08-12T08:54:03;6.05;;;5.45;;
16430;SDS011;8325;49.284;7.238;2023-08-12T08:58:16;5.43;;;4.93;;
16430;SDS011;8325;49.284;7.238;2023-08-12T09:02:35;5.40;;;4.88;;
16430;SDS011;8325;49.284;7.238;2023-08-12T09:06:48;5.97;;;5.38;;
16430;SDS011;8325;49.284;7.238;2023-08-12T09:11:02;5.40;;;4.70;;
16430;SDS011;8325;49.284;7.238;2023-08-12T09:15:15;5.30;;;4.70;;
16430;SDS011;8325;49.284;7.238;2023-08-12T09:19:27;5.85;;;5.07;;
16430;SDS011;8325;49.284;7.238;2023-08-12T09:23:40;7.95;;;5.13;;
16430;SDS011;8325;49.284;7.238;2023-08-12T09:27:53;6.57;;;5.32;;
16430;SDS011;8325;49.284;7.238;2023-08-12T09:36:28;5.85;;;4.70;;
16430;SDS011;8325;49.284;7.238;2023-08-12T09:40:42;5.68;;;5.07;;
16430;SDS011;8325;49.284;7.238;2023-08-12T09:44:53;5.88;;;5.38;;
16430;SDS011;8325;49.284;7.238;2023-08-12T09:49:06;5.30;;;4.80;;
16430;SDS011;8325;49.284;7.238;2023-08-12T09:53:18;7.20;;;5.07;;
16430;SDS011;8325;49.284;7.238;2023-08-12T09:57:29;6.28;;;4.70;;
16430;SDS011;8325;49.284;7.238;2023-08-12T10:01:44;5.57;;;4.50;;
16430;SDS011;8325;49.284;7.238;2023-08-12T10:05:57;5.35;;;4.75;;
16430;SDS011;8325;49.284;7.238;2023-08-12T10:10:09;5.85;;;5.20;;
16430;SDS011;8325;49.284;7.238;2023-08-12T10:14:21;5.97;;;4.78;;
16430;SDS011;8325;49.284;7.238;2023-08-12T10:18:33;6.30;;;4.80;;
16430;SDS011;8325;49.284;7.238;2023-08-12T10:22:47;5.90;;;4.60;;
16430;SDS011;8325;49.284;7.238;2023-08-12T10:27:00;5.45;;;4.95;;
16430;SDS011;8325;49.284;7.238;2023-08-12T10:31:12;5.63;;;4.57;;
16430;SDS011;8325;49.284;7.238;2023-08-12T10:35:24;7.70;;;5.13;;
16430;SDS011;8325;49.284;7.238;2023-08-12T10:39:54;5.22;;;4.13;;
16430;SDS011;8325;49.284;7.238;2023-08-12T10:44:06;5.47;;;4.13;;
16430;SDS011;8325;49.284;7.238;2023-08-12T10:52:33;5.03;;;3.33;;
16430;SDS011;8325;49.284;7.238;2023-08-12T11:01:20;3.65;;;3.00;;
16430;SDS011;8325;49.284;7.238;2023-08-12T11:05:40;3.13;;;2.83;;
16430;SDS011;8325;49.284;7.238;2023-08-12T11:09:52;3.05;;;2.67;;
16430;SDS011;8325;49.284;7.238;2023-08-12T11:14:10;2.85;;;2.53;;
16430;SDS011;8325;49.284;7.238;2023-08-12T11:18:25;3.70;;;3.13;;
16430;SDS011;8325;49.284;7.238;2023-08-12T11:22:39;2.97;;;2.63;;
16430;SDS011;8325;49.284;7.238;2023-08-12T11:26:51;2.80;;;2.60;;
16430;SDS011;8325;49.284;7.238;2023-08-12T11:31:03;3.05;;;2.60;;
16430;SDS011;8325;49.284;7.238;2023-08-12T11:35:15;2.95;;;2.60;;
16430;SDS011;8325;49.284;7.238;2023-08-12T11:39:28;3.95;;;2.53;;
16430;SDS011;8325;49.284;7.238;2023-08-12T11:43:39;3.63;;;2.90;;
16430;SDS011;8325;49.284;7.238;2023-08-12T11:47:51;3.90;;;2.70;;
16430;SDS011;8325;49.284;7.238;2023-08-12T11:52:08;3.45;;;3.15;;
16430;SDS011;8325;49.284;7.238;2023-08-12T11:56:21;3.75;;;3.00;;
16430;SDS011;8325;49.284;7.238;2023-08-12T12:00:33;3.50;;;2.92;;
16430;SDS011;8325;49.284;7.238;2023-08-12T12:04:45;2.90;;;2.70;;
16430;SDS011;8325;49.284;7.238;2023-08-12T12:08:59;2.97;;;2.45;;
16430;SDS011;8325;49.284;7.238;2023-08-12T12:13:13;2.85;;;2.50;;
16430;SDS011;8325;49.284;7.238;2023-08-12T12:17:25;2.90;;;2.38;;
16430;SDS011;8325;49.284;7.238;2023-08-12T12:21:41;3.10;;;2.30;;
16430;SDS011;8325;49.284;7.238;2023-08-12T12:26:03;2.83;;;2.40;;
16430;SDS011;8325;49.284;7.238;2023-08-12T12:30:15;3.22;;;2.90;;
16430;SDS011;8325;49.284;7.238;2023-08-12T12:34:27;2.92;;;2.60;;
16430;SDS011;8325;49.284;7.238;2023-08-12T12:38:39;3.25;;;2.40;;
16430;SDS011;8325;49.284;7.238;2023-08-12T12:42:51;3.28;;;2.85;;
16430;SDS011;8325;49.284;7.238;2023-08-12T12:47:02;5.35;;;4.70;;
16430;SDS011;8325;49.284;7.238;2023-08-12T12:51:14;8.07;;;5.00;;
16430;SDS011;8325;49.284;7.238;2023-08-12T12:55:26;6.38;;;4.32;;
16430;SDS011;8325;49.284;7.238;2023-08-12T12:59:37;3.70;;;2.20;;
16430;SDS011;8325;49.284;7.238;2023-08-12T13:03:49;3.55;;;2.13;;
16430;SDS011;8325;49.284;7.238;2023-08-12T13:08:01;3.53;;;3.10;;
16430;SDS011;8325;49.284;7.238;2023-08-12T13:12:12;2.42;;;2.22;;
16430;SDS011;8325;49.284;7.238;2023-08-12T13:16:24;2.50;;;2.15;;
16430;SDS011;8325;49.284;7.238;2023-08-12T13:20:36;3.55;;;2.40;;
16430;SDS011;8325;49.284;7.238;2023-08-12T13:24:48;3.25;;;2.45;;
16430;SDS011;8325;49.284;7.238;2023-08-12T13:29:00;2.88;;;2.58;;
16430;SDS011;8325;49.284;7.238;2023-08-12T13:33:12;2.90;;;2.65;;
16430;SDS011;8325;49.284;7.238;2023-08-12T13:37:23;3.72;;;2.60;;
16430;SDS011;8325;49.284;7.238;2023-08-12T13:41:35;4.43;;;2.75;;
16430;SDS011;8325;49.284;7.238;2023-08-12T13:45:46;3.80;;;3.50;;
16430;SDS011;8325;49.284;7.238;2023-08-12T13:49:58;6.05;;;4.57;;
16430;SDS011;8325;49.284;7.238;2023-08-12T13:54:09;4.55;;;3.33;;
16430;SDS011;8325;49.284;7.238;2023-08-12T13:58:21;4.97;;;2.83;;
16430;SDS011;8325;49.284;7.238;2023-08-12T14:02:32;5.30;;;2.60;;
16430;SDS011;8325;49.284;7.238;2023-08-12T14:06:44;3.78;;;2.67;;
16430;SDS011;8325;49.284;7.238;2023-08-12T14:10:56;3.90;;;3.10;;
16430;SDS011;8325;49.284;7.238;2023-08-12T14:15:08;3.17;;;2.78;;
16430;SDS011;8325;49.284;7.238;2023-08-12T14:19:19;4.53;;;2.97;;
16430;SDS011;8325;49.284;7.238;2023-08-12T14:23:31;6.00;;;3.80;;
16430;SDS011;8325;49.284;7.238;2023-08-12T14:27:43;5.28;;;2.78;;
16430;SDS011;8325;49.284;7.238;2023-08-12T14:31:54;4.90;;;3.00;;
16430;SDS011;8325;49.284;7.238;2023-08-12T14:36:06;5.22;;;3.10;;
16430;SDS011;8325;49.284;7.238;2023-08-12T14:40:17;3.53;;;2.80;;
16430;SDS011;8325;49.284;7.238;2023-08-12T14:44:29;3.08;;;2.42;;
16430;SDS011;8325;49.284;7.238;2023-08-12T14:48:47;3.47;;;2.60;;
16430;SDS011;8325;49.284;7.238;2023-08-12T14:52:59;3.13;;;2.63;;
16430;SDS011;8325;49.284;7.238;2023-08-12T14:57:10;2.30;;;2.03;;
16430;SDS011;8325;49.284;7.238;2023-08-12T15:01:22;2.85;;;2.15;;
16430;SDS011;8325;49.284;7.238;2023-08-12T15:05:36;2.60;;;1.88;;
16430;SDS011;8325;49.284;7.238;2023-08-12T15:09:47;2.53;;;2.03;;
16430;SDS011;8325;49.284;7.238;2023-08-12T15:13:59;3.17;;;1.88;;
16430;SDS011;8325;49.284;7.238;2023-08-12T15:18:10;3.28;;;2.13;;
16430;SDS011;8325;49.284;7.238;2023-08-12T15:22:22;2.17;;;1.92;;
16430;SDS011;8325;49.284;7.238;2023-08-12T15:26:34;2.15;;;1.75;;
16430;SDS011;8325;49.284;7.238;2023-08-12T15:30:48;1.75;;;1.60;;
16430;SDS011;8325;49.284;7.238;2023-08-12T15:35:01;2.80;;;1.50;;
16430;SDS011;8325;49.284;7.238;2023-08-12T15:39:13;3.47;;;1.80;;
16430;SDS011;8325;49.284;7.238;2023-08-12T15:43:25;1.45;;;1.30;;
16430;SDS011;8325;49.284;7.238;2023-08-12T15:47:37;1.80;;;1.60;;
16430;SDS011;8325;49.284;7.238;2023-08-12T15:51:48;1.88;;;1.60;;
16430;SDS011;8325;49.284;7.238;2023-08-12T15:56:00;2.35;;;1.80;;
16430;SDS011;8325;49.284;7.238;2023-08-12T16:00:11;1.65;;;1.50;;
16430;SDS011;8325;49.284;7.238;2023-08-12T16:04:23;2.38;;;1.50;;
16430;SDS011;8325;49.284;7.238;2023-08-12T16:08:35;1.48;;;1.35;;
16430;SDS011;8325;49.284;7.238;2023-08-12T16:12:46;2.75;;;1.85;;
16430;SDS011;8325;49.284;7.238;2023-08-12T16:16:58;1.60;;;1.50;;
16430;SDS011;8325;49.284;7.238;2023-08-12T16:21:09;2.00;;;1.80;;
16430;SDS011;8325;49.284;7.238;2023-08-12T16:25:21;1.60;;;1.50;;
16430;SDS011;8325;49.284;7.238;2023-08-12T16:29:32;1.85;;;1.67;;
16430;SDS011;8325;49.284;7.238;2023-08-12T16:33:44;2.20;;;1.50;;
16430;SDS011;8325;49.284;7.238;2023-08-12T16:37:56;3.72;;;1.60;;
16430;SDS011;8325;49.284;7.238;2023-08-12T16:42:08;2.78;;;1.80;;
16430;SDS011;8325;49.284;7.238;2023-08-12T16:46:19;3.05;;;1.70;;
16430;SDS011;8325;49.284;7.238;2023-08-12T16:50:33;2.92;;;1.60;;
16430;SDS011;8325;49.284;7.238;2023-08-12T16:54:45;2.42;;;1.60;;
16430;SDS011;8325;49.284;7.238;2023-08-12T16:58:56;2.42;;;2.20;;
16430;SDS011;8325;49.284;7.238;2023-08-12T17:03:08;2.00;;;1.60;;
16430;SDS011;8325;49.284;7.238;2023-08-12T17:07:20;2.20;;;2.00;;
16430;SDS011;8325;49.284;7.238;2023-08-12T17:11:32;1.60;;;1.48;;
16430;SDS011;8325;49.284;7.238;2023-08-12T17:15:43;2.63;;;1.52;;
16430;SDS011;8325;49.284;7.238;2023-08-12T17:19:57;1.75;;;1.60;;
16430;SDS011;8325;49.284;7.238;2023-08-12T17:24:09;2.75;;;1.77;;
16430;SDS011;8325;49.284;7.238;2023-08-12T17:28:20;2.72;;;1.88;;
16430;SDS011;8325;49.284;7.238;2023-08-12T17:32:32;3.72;;;2.47;;
16430;SDS011;8325;49.284;7.238;2023-08-12T17:36:43;1.60;;;1.40;;
16430;SDS011;8325;49.284;7.238;2023-08-12T17:40:55;2.83;;;1.20;;
16430;SDS011;8325;49.284;7.238;2023-08-12T17:45:07;3.58;;;1.17;;
16430;SDS011;8325;49.284;7.238;2023-08-12T17:49:18;1.25;;;1.15;;
16430;SDS011;8325;49.284;7.238;2023-08-12T17:53:30;2.67;;;1.40;;
16430;SDS011;8325;49.284;7.238;2023-08-12T17:57:42;1.33;;;1.23;;
16430;SDS011;8325;49.284;7.238;2023-08-12T18:01:53;2.97;;;2.20;;
16430;SDS011;8325;49.284;7.238;2023-08-12T18:06:05;2.00;;;1.90;;
16430;SDS011;8325;49.284;7.238;2023-08-12T18:10:16;2.47;;;2.28;;
16430;SDS011;8325;49.284;7.238;2023-08-12T18:14:28;4.18;;;3.35;;
16430;SDS011;8325;49.284;7.238;2023-08-12T18:18:40;3.65;;;2.53;;
16430;SDS011;8325;49.284;7.238;2023-08-12T18:22:52;4.20;;;2.50;;
16430;SDS011;8325;49.284;7.238;2023-08-12T18:27:03;26.77;;;16.92;;
16430;SDS011;8325;49.284;7.238;2023-08-12T18:31:15;10.05;;;6.53;;
16430;SDS011;8325;49.284;7.238;2023-08-12T18:35:27;4.55;;;3.83;;
16430;SDS011;8325;49.284;7.238;2023-08-12T18:39:39;4.65;;;4.25;;
16430;SDS011;8325;49.284;7.238;2023-08-12T18:43:50;2.05;;;1.30;;
16430;SDS011;8325;49.284;7.238;2023-08-12T18:48:02;5.72;;;4.20;;
16430;SDS011;8325;49.284;7.238;2023-08-12T18:52:14;3.20;;;2.67;;
16430;SDS011;8325;49.284;7.238;2023-08-12T18:56:26;3.75;;;2.78;;
16430;SDS011;8325;49.284;7.238;2023-08-12T19:00:39;2.38;;;2.17;;
16430;SDS011;8325;49.284;7.238;2023-08-12T19:04:50;4.47;;;1.70;;
16430;SDS011;8325;49.284;7.238;2023-08-12T19:09:02;1.77;;;1.58;;
16430;SDS011;8325;49.284;7.238;2023-08-12T19:13:14;1.25;;;1.13;;
16430;SDS011;8325;49.284;7.238;2023-08-12T19:17:25;2.90;;;1.38;;
16430;SDS011;8325;49.284;7.238;2023-08-12T19:21:37;1.90;;;1.30;;
16430;SDS011;8325;49.284;7.238;2023-08-12T19:25:49;2.35;;;1.17;;
16430;SDS011;8325;49.284;7.238;2023-08-12T19:30:01;1.95;;;1.20;;
16430;SDS011;8325;49.284;7.238;2023-08-12T19:34:12;1.30;;;1.20;;
16430;SDS011;8325;49.284;7.238;2023-08-12T19:38:24;2.05;;;1.33;;
16430;SDS011;8325;49.284;7.238;2023-08-12T19:42:35;1.90;;;1.30;;
16430;SDS011;8325;49.284;7.238;2023-08-12T19:46:47;2.15;;;1.23;;
16430;SDS011;8325;49.284;7.238;2023-08-12T19:50:58;1.60;;;1.30;;
16430;SDS011;8325;49.284;7.238;2023-08-12T19:55:10;2.10;;;1.30;;
16430;SDS011;8325;49.284;7.238;2023-08-12T19:59:22;1.30;;;1.20;;
16430;SDS011;8325;49.284;7.238;2023-08-12T20:03:33;2.05;;;1.45;;
16430;SDS011;8325;49.284;7.238;2023-08-12T20:07:46;2.65;;;1.73;;
16430;SDS011;8325;49.284;7.238;2023-08-12T20:11:58;2.30;;;1.67;;
16430;SDS011;8325;49.284;7.238;2023-08-12T20:16:10;2.10;;;1.90;;
16430;SDS011;8325;49.284;7.238;2023-08-12T20:20:22;3.47;;;2.47;;
16430;SDS011;8325;49.284;7.238;2023-08-12T20:24:33;3.47;;;1.48;;
16430;SDS011;8325;49.284;7.238;2023-08-12T20:28:45;1.85;;;1.40;;
16430;SDS011;8325;49.284;7.238;2023-08-12T20:32:57;1.30;;;1.20;;
16430;SDS011;8325;49.284;7.238;2023-08-12T20:37:08;1.75;;;1.20;;
16430;SDS011;8325;49.284;7.238;2023-08-12T20:41:20;2.55;;;1.30;;
16430;SDS011;8325;49.284;7.238;2023-08-12T20:45:32;3.08;;;1.20;;
16430;SDS011;8325;49.284;7.238;2023-08-12T20:49:44;1.55;;;1.08;;
16430;SDS011;8325;49.284;7.238;2023-08-12T20:53:55;1.40;;;0.80;;
16430;SDS011;8325;49.284;7.238;2023-08-12T20:58:07;1.25;;;1.15;;
16430;SDS011;8325;49.284;7.238;2023-08-12T21:02:19;1.63;;;1.15;;
16430;SDS011;8325;49.284;7.238;2023-08-12T21:06:31;1.50;;;1.17;;
16430;SDS011;8325;49.284;7.238;2023-08-12T21:10:42;1.10;;;1.00;;
16430;SDS011;8325;49.284;7.238;2023-08-12T21:15:00;2.55;;;1.30;;
16430;SDS011;8325;49.284;7.238;2023-08-12T21:19:12;2.40;;;1.33;;
16430;SDS011;8325;49.284;7.238;2023-08-12T21:23:27;1.30;;;1.20;;
16430;SDS011;8325;49.284;7.238;2023-08-12T21:27:39;1.20;;;1.10;;
